sensor_id;sensor_type;location;lat;lon;timestamp;temperature;humidity
19106;DHT22;9685;54.338;18.672;2024-01-16T00:00:57;-1.70;53.50
19106;DHT22;9685;54.338;18.672;2024-01-16T00:03:24;-1.70;54.40
19106;DHT22;9685;54.338;18.672;2024-01-16T00:05:51;-0.70;55.30
19106;DHT22;9685;54.338;18.672;2024-01-16T00:08:19;-1.70;53.80
19106;DHT22;9685;54.338;18.672;2024-01-16T00:10:46;-1.80;54.50
19106;DHT22;9685;54.338;18.672;2024-01-16T00:13:13;-1.70;55.40
19106;DHT22;9685;54.338;18.672;2024-01-16T00:15:40;-1.80;54.80
19106;DHT22;9685;54.338;18.672;2024-01-16T00:18:08;-1.30;54.50
19106;DHT22;9685;54.338;18.672;2024-01-16T00:20:34;-1.70;54.60
19106;DHT22;9685;54.338;18.672;2024-01-16T00:23:01;-1.80;54.90
19106;DHT22;9685;54.338;18.672;2024-01-16T00:25:30;-1.80;54.50
19106;DHT22;9685;54.338;18.672;2024-01-16T00:27:57;-1.80;54.10
19106;DHT22;9685;54.338;18.672;2024-01-16T00:30:23;-1.40;55.60
19106;DHT22;9685;54.338;18.672;2024-01-16T00:32:50;-1.40;56.80
19106;DHT22;9685;54.338;18.672;2024-01-16T00:35:17;-1.60;55.30
19106;DHT22;9685;54.338;18.672;2024-01-16T00:37:44;-1.80;54.70
19106;DHT22;9685;54.338;18.672;2024-01-16T00:40:11;-1.90;55.60
19106;DHT22;9685;54.338;18.672;2024-01-16T00:42:40;-1.90;55.80
19106;DHT22;9685;54.338;18.672;2024-01-16T00:45:07;-1.10;57.50
19106;DHT22;9685;54.338;18.672;2024-01-16T00:47:34;-1.10;57.00
19106;DHT22;9685;54.338;18.672;2024-01-16T00:50:01;-1.10;55.50
19106;DHT22;9685;54.338;18.672;2024-01-16T00:52:28;-1.70;56.20
19106;DHT22;9685;54.338;18.672;2024-01-16T00:54:55;-1.30;53.90
19106;DHT22;9685;54.338;18.672;2024-01-16T00:57:22;-1.90;54.10
19106;DHT22;9685;54.338;18.672;2024-01-16T00:59:50;-1.80;54.10
19106;DHT22;9685;54.338;18.672;2024-01-16T01:02:17;-1.90;53.70
19106;DHT22;9685;54.338;18.672;2024-01-16T01:04:44;-1.90;52.30
19106;DHT22;9685;54.338;18.672;2024-01-16T01:07:13;-1.90;51.90
19106;DHT22;9685;54.338;18.672;2024-01-16T01:09:40;-2.00;53.30
19106;DHT22;9685;54.338;18.672;2024-01-16T01:12:07;-2.00;51.50
19106;DHT22;9685;54.338;18.672;2024-01-16T01:14:35;-1.50;54.00
19106;DHT22;9685;54.338;18.672;2024-01-16T01:17:03;-2.00;48.50
19106;DHT22;9685;54.338;18.672;2024-01-16T01:19:30;-2.10;51.00
19106;DHT22;9685;54.338;18.672;2024-01-16T01:21:57;-2.10;50.90
19106;DHT22;9685;54.338;18.672;2024-01-16T01:24:24;-2.00;51.40
19106;DHT22;9685;54.338;18.672;2024-01-16T01:26:51;-2.10;49.40
19106;DHT22;9685;54.338;18.672;2024-01-16T01:29:18;-2.10;49.60
19106;DHT22;9685;54.338;18.672;2024-01-16T01:31:46;-2.00;50.90
19106;DHT22;9685;54.338;18.672;2024-01-16T01:34:15;-2.10;50.80
19106;DHT22;9685;54.338;18.672;2024-01-16T01:36:42;-2.00;50.30
19106;DHT22;9685;54.338;18.672;2024-01-16T01:39:09;-2.10;49.90
19106;DHT22;9685;54.338;18.672;2024-01-16T01:41:38;-2.10;48.90
19106;DHT22;9685;54.338;18.672;2024-01-16T01:44:06;-1.90;48.90
19106;DHT22;9685;54.338;18.672;2024-01-16T01:46:33;-2.10;50.80
19106;DHT22;9685;54.338;18.672;2024-01-16T01:49:01;-2.10;76.40
19106;DHT22;9685;54.338;18.672;2024-01-16T01:51:30;-2.10;51.60
19106;DHT22;9685;54.338;18.672;2024-01-16T01:53:58;-1.30;50.80
19106;DHT22;9685;54.338;18.672;2024-01-16T01:56:25;-2.10;73.80
19106;DHT22;9685;54.338;18.672;2024-01-16T01:58:54;-1.40;50.50
19106;DHT22;9685;54.338;18.672;2024-01-16T02:01:23;-2.20;51.00
19106;DHT22;9685;54.338;18.672;2024-01-16T02:03:52;-2.30;50.50
19106;DHT22;9685;54.338;18.672;2024-01-16T02:06:22;-1.60;51.40
19106;DHT22;9685;54.338;18.672;2024-01-16T02:08:51;-2.30;49.70
19106;DHT22;9685;54.338;18.672;2024-01-16T02:11:18;-2.30;48.70
19106;DHT22;9685;54.338;18.672;2024-01-16T02:13:45;-2.40;48.60
19106;DHT22;9685;54.338;18.672;2024-01-16T02:16:19;-2.50;47.80
19106;DHT22;9685;54.338;18.672;2024-01-16T02:18:46;-2.60;48.60
19106;DHT22;9685;54.338;18.672;2024-01-16T02:21:17;-2.20;46.30
19106;DHT22;9685;54.338;18.672;2024-01-16T02:23:45;-2.60;47.40
19106;DHT22;9685;54.338;18.672;2024-01-16T02:26:14;-2.30;47.00
19106;DHT22;9685;54.338;18.672;2024-01-16T02:28:41;-2.20;47.10
19106;DHT22;9685;54.338;18.672;2024-01-16T02:31:08;-2.60;45.60
19106;DHT22;9685;54.338;18.672;2024-01-16T02:33:35;-2.20;45.60
19106;DHT22;9685;54.338;18.672;2024-01-16T02:36:02;-1.80;46.00
19106;DHT22;9685;54.338;18.672;2024-01-16T02:38:29;-2.80;44.70
19106;DHT22;9685;54.338;18.672;2024-01-16T02:40:57;-2.80;45.10
19106;DHT22;9685;54.338;18.672;2024-01-16T02:43:24;-2.80;45.50
19106;DHT22;9685;54.338;18.672;2024-01-16T02:45:52;-2.80;45.50
19106;DHT22;9685;54.338;18.672;2024-01-16T02:48:19;-2.10;45.60
19106;DHT22;9685;54.338;18.672;2024-01-16T02:50:46;-1.80;45.60
19106;DHT22;9685;54.338;18.672;2024-01-16T02:53:13;-2.60;43.30
19106;DHT22;9685;54.338;18.672;2024-01-16T02:55:40;-2.60;44.10
19106;DHT22;9685;54.338;18.672;2024-01-16T02:58:09;-2.70;43.30
19106;DHT22;9685;54.338;18.672;2024-01-16T03:00:36;-2.60;44.70
19106;DHT22;9685;54.338;18.672;2024-01-16T03:03:03;-2.60;43.60
19106;DHT22;9685;54.338;18.672;2024-01-16T03:05:30;-2.80;43.00
19106;DHT22;9685;54.338;18.672;2024-01-16T03:07:57;-1.90;43.50
19106;DHT22;9685;54.338;18.672;2024-01-16T03:10:24;-2.70;42.60
19106;DHT22;9685;54.338;18.672;2024-01-16T03:12:51;-2.80;42.70
19106;DHT22;9685;54.338;18.672;2024-01-16T03:15:19;-2.10;42.70
19106;DHT22;9685;54.338;18.672;2024-01-16T03:17:47;-2.90;42.80
19106;DHT22;9685;54.338;18.672;2024-01-16T03:20:14;-2.90;41.50
19106;DHT22;9685;54.338;18.672;2024-01-16T03:22:43;-2.90;43.40
19106;DHT22;9685;54.338;18.672;2024-01-16T03:25:10;-2.00;43.40
19106;DHT22;9685;54.338;18.672;2024-01-16T03:27:38;-3.00;43.70
19106;DHT22;9685;54.338;18.672;2024-01-16T03:30:06;-2.90;42.60
19106;DHT22;9685;54.338;18.672;2024-01-16T03:32:35;-3.00;44.40
19106;DHT22;9685;54.338;18.672;2024-01-16T03:35:02;-3.00;43.00
19106;DHT22;9685;54.338;18.672;2024-01-16T03:37:29;-3.00;42.20
19106;DHT22;9685;54.338;18.672;2024-01-16T03:39:56;-3.00;42.00
19106;DHT22;9685;54.338;18.672;2024-01-16T03:42:23;-2.50;42.10
19106;DHT22;9685;54.338;18.672;2024-01-16T03:44:50;-3.00;42.40
19106;DHT22;9685;54.338;18.672;2024-01-16T03:47:17;-3.00;40.20
19106;DHT22;9685;54.338;18.672;2024-01-16T03:49:46;-3.10;43.80
19106;DHT22;9685;54.338;18.672;2024-01-16T03:52:13;-3.20;42.00
19106;DHT22;9685;54.338;18.672;2024-01-16T03:54:40;-3.20;42.00
19106;DHT22;9685;54.338;18.672;2024-01-16T03:57:06;-3.30;43.80
19106;DHT22;9685;54.338;18.672;2024-01-16T03:59:36;-3.00;44.30
19106;DHT22;9685;54.338;18.672;2024-01-16T04:02:03;-3.30;43.10
19106;DHT22;9685;54.338;18.672;2024-01-16T04:04:30;-3.30;43.10
19106;DHT22;9685;54.338;18.672;2024-01-16T04:06:59;-3.30;43.20
19106;DHT22;9685;54.338;18.672;2024-01-16T04:09:25;-3.30;43.60
19106;DHT22;9685;54.338;18.672;2024-01-16T04:11:52;-3.30;43.90
19106;DHT22;9685;54.338;18.672;2024-01-16T04:14:19;-3.30;42.40
19106;DHT22;9685;54.338;18.672;2024-01-16T04:16:47;-3.20;43.70
19106;DHT22;9685;54.338;18.672;2024-01-16T04:19:14;-3.30;44.70
19106;DHT22;9685;54.338;18.672;2024-01-16T04:21:41;-3.30;44.50
19106;DHT22;9685;54.338;18.672;2024-01-16T04:24:09;-3.30;65.40
19106;DHT22;9685;54.338;18.672;2024-01-16T04:26:36;-3.00;43.30
19106;DHT22;9685;54.338;18.672;2024-01-16T04:29:04;-3.30;44.30
19106;DHT22;9685;54.338;18.672;2024-01-16T04:31:32;-3.10;43.10
19106;DHT22;9685;54.338;18.672;2024-01-16T04:33:59;-3.50;44.30
19106;DHT22;9685;54.338;18.672;2024-01-16T04:36:26;-3.50;42.70
19106;DHT22;9685;54.338;18.672;2024-01-16T04:38:53;-3.40;44.00
19106;DHT22;9685;54.338;18.672;2024-01-16T04:41:21;-2.50;44.20
19106;DHT22;9685;54.338;18.672;2024-01-16T04:43:48;-3.40;43.00
19106;DHT22;9685;54.338;18.672;2024-01-16T04:46:15;-1.50;29.20
19106;DHT22;9685;54.338;18.672;2024-01-16T04:48:42;-3.40;43.10
19106;DHT22;9685;54.338;18.672;2024-01-16T04:51:09;-3.50;42.40
19106;DHT22;9685;54.338;18.672;2024-01-16T04:53:36;-3.50;42.00
19106;DHT22;9685;54.338;18.672;2024-01-16T04:56:03;-3.50;42.00
19106;DHT22;9685;54.338;18.672;2024-01-16T04:58:32;-3.50;42.70
19106;DHT22;9685;54.338;18.672;2024-01-16T05:00:59;-3.50;41.40
19106;DHT22;9685;54.338;18.672;2024-01-16T05:03:26;-3.60;43.40
19106;DHT22;9685;54.338;18.672;2024-01-16T05:05:53;-3.60;42.40
19106;DHT22;9685;54.338;18.672;2024-01-16T05:08:21;-3.60;41.90
19106;DHT22;9685;54.338;18.672;2024-01-16T05:10:48;-3.60;42.20
19106;DHT22;9685;54.338;18.672;2024-01-16T05:13:15;-3.60;41.70
19106;DHT22;9685;54.338;18.672;2024-01-16T05:15:44;-3.50;40.90
19106;DHT22;9685;54.338;18.672;2024-01-16T05:18:11;-3.50;42.00
19106;DHT22;9685;54.338;18.672;2024-01-16T05:20:37;-3.60;40.60
19106;DHT22;9685;54.338;18.672;2024-01-16T05:23:05;-3.60;41.00
19106;DHT22;9685;54.338;18.672;2024-01-16T05:25:32;-3.70;40.10
19106;DHT22;9685;54.338;18.672;2024-01-16T05:27:59;-3.60;39.90
19106;DHT22;9685;54.338;18.672;2024-01-16T05:30:26;-3.60;40.60
19106;DHT22;9685;54.338;18.672;2024-01-16T05:32:54;-3.60;38.90
19106;DHT22;9685;54.338;18.672;2024-01-16T05:35:21;-3.60;39.90
19106;DHT22;9685;54.338;18.672;2024-01-16T05:37:48;-3.70;39.30
19106;DHT22;9685;54.338;18.672;2024-01-16T05:40:15;-3.50;40.20
19106;DHT22;9685;54.338;18.672;2024-01-16T05:42:42;-3.50;39.80
19106;DHT22;9685;54.338;18.672;2024-01-16T05:45:09;-3.60;38.80
19106;DHT22;9685;54.338;18.672;2024-01-16T05:47:36;-3.70;38.70
19106;DHT22;9685;54.338;18.672;2024-01-16T05:50:05;-3.70;39.50
19106;DHT22;9685;54.338;18.672;2024-01-16T05:52:33;-3.60;40.30
19106;DHT22;9685;54.338;18.672;2024-01-16T05:55:00;-3.60;38.60
19106;DHT22;9685;54.338;18.672;2024-01-16T05:57:28;-3.60;39.60
19106;DHT22;9685;54.338;18.672;2024-01-16T05:59:57;-3.50;40.40
19106;DHT22;9685;54.338;18.672;2024-01-16T06:02:24;-2.60;40.10
19106;DHT22;9685;54.338;18.672;2024-01-16T06:04:51;-3.50;38.40
19106;DHT22;9685;54.338;18.672;2024-01-16T06:07:19;-3.50;38.70
19106;DHT22;9685;54.338;18.672;2024-01-16T06:09:46;-2.40;40.10
19106;DHT22;9685;54.338;18.672;2024-01-16T06:12:13;-3.40;38.30
19106;DHT22;9685;54.338;18.672;2024-01-16T06:14:40;-3.50;38.20
19106;DHT22;9685;54.338;18.672;2024-01-16T06:17:07;-3.50;37.90
19106;DHT22;9685;54.338;18.672;2024-01-16T06:19:34;-3.50;38.30
19106;DHT22;9685;54.338;18.672;2024-01-16T06:22:02;-3.50;37.10
19106;DHT22;9685;54.338;18.672;2024-01-16T06:24:30;-3.50;37.00
19106;DHT22;9685;54.338;18.672;2024-01-16T06:27:03;-2.80;37.90
19106;DHT22;9685;54.338;18.672;2024-01-16T06:29:30;-3.40;39.00
19106;DHT22;9685;54.338;18.672;2024-01-16T06:31:57;-3.40;37.40
19106;DHT22;9685;54.338;18.672;2024-01-16T06:34:24;-3.30;38.10
19106;DHT22;9685;54.338;18.672;2024-01-16T06:36:51;-3.30;37.10
19106;DHT22;9685;54.338;18.672;2024-01-16T06:39:18;-3.50;35.80
19106;DHT22;9685;54.338;18.672;2024-01-16T06:41:47;-3.50;36.40
19106;DHT22;9685;54.338;18.672;2024-01-16T06:44:13;-3.60;36.30
19106;DHT22;9685;54.338;18.672;2024-01-16T06:46:40;-3.50;36.50
19106;DHT22;9685;54.338;18.672;2024-01-16T06:49:07;-3.50;36.90
19106;DHT22;9685;54.338;18.672;2024-01-16T06:51:34;-3.40;37.10
19106;DHT22;9685;54.338;18.672;2024-01-16T06:54:01;-3.30;35.30
19106;DHT22;9685;54.338;18.672;2024-01-16T06:56:29;-2.70;37.90
19106;DHT22;9685;54.338;18.672;2024-01-16T06:58:57;-2.80;37.20
19106;DHT22;9685;54.338;18.672;2024-01-16T07:01:24;-3.20;36.10
19106;DHT22;9685;54.338;18.672;2024-01-16T07:03:51;-3.30;37.00
19106;DHT22;9685;54.338;18.672;2024-01-16T07:06:18;-3.10;36.20
19106;DHT22;9685;54.338;18.672;2024-01-16T07:08:45;-3.40;36.00
19106;DHT22;9685;54.338;18.672;2024-01-16T07:11:12;-3.30;36.20
19106;DHT22;9685;54.338;18.672;2024-01-16T07:13:39;-3.40;35.50
19106;DHT22;9685;54.338;18.672;2024-01-16T07:16:09;-3.40;36.60
19106;DHT22;9685;54.338;18.672;2024-01-16T07:18:37;-3.40;36.50
19106;DHT22;9685;54.338;18.672;2024-01-16T07:21:04;-2.80;36.60
19106;DHT22;9685;54.338;18.672;2024-01-16T07:23:31;-3.40;35.20
19106;DHT22;9685;54.338;18.672;2024-01-16T07:25:58;-3.30;36.30
19106;DHT22;9685;54.338;18.672;2024-01-16T07:28:25;-3.30;36.00
19106;DHT22;9685;54.338;18.672;2024-01-16T07:30:53;-3.30;35.50
19106;DHT22;9685;54.338;18.672;2024-01-16T07:33:22;-3.40;37.40
19106;DHT22;9685;54.338;18.672;2024-01-16T07:35:48;-3.40;36.70
19106;DHT22;9685;54.338;18.672;2024-01-16T07:38:15;-3.30;36.20
19106;DHT22;9685;54.338;18.672;2024-01-16T07:40:42;-2.40;36.50
19106;DHT22;9685;54.338;18.672;2024-01-16T07:43:09;-3.30;35.90
19106;DHT22;9685;54.338;18.672;2024-01-16T07:45:36;-2.60;36.40
19106;DHT22;9685;54.338;18.672;2024-01-16T07:48:03;-3.30;35.90
19106;DHT22;9685;54.338;18.672;2024-01-16T07:50:32;-3.30;37.00
19106;DHT22;9685;54.338;18.672;2024-01-16T07:52:59;-3.30;35.00
19106;DHT22;9685;54.338;18.672;2024-01-16T07:55:26;-2.60;35.70
19106;DHT22;9685;54.338;18.672;2024-01-16T07:57:53;-3.30;35.20
19106;DHT22;9685;54.338;18.672;2024-01-16T08:00:21;-3.20;35.00
19106;DHT22;9685;54.338;18.672;2024-01-16T08:02:48;-3.20;34.40
19106;DHT22;9685;54.338;18.672;2024-01-16T08:05:15;-3.20;34.60
19106;DHT22;9685;54.338;18.672;2024-01-16T08:07:43;-3.20;34.70
19106;DHT22;9685;54.338;18.672;2024-01-16T08:10:10;-3.20;34.80
19106;DHT22;9685;54.338;18.672;2024-01-16T08:12:37;-3.10;34.70
19106;DHT22;9685;54.338;18.672;2024-01-16T08:15:06;-3.00;34.80
19106;DHT22;9685;54.338;18.672;2024-01-16T08:17:34;-2.90;36.70
19106;DHT22;9685;54.338;18.672;2024-01-16T08:20:01;-2.80;35.90
19106;DHT22;9685;54.338;18.672;2024-01-16T08:22:29;-3.00;34.60
19106;DHT22;9685;54.338;18.672;2024-01-16T08:24:57;-2.90;34.30
19106;DHT22;9685;54.338;18.672;2024-01-16T08:27:24;-2.70;35.20
19106;DHT22;9685;54.338;18.672;2024-01-16T08:29:50;-2.70;35.10
19106;DHT22;9685;54.338;18.672;2024-01-16T08:32:17;-2.70;36.00
19106;DHT22;9685;54.338;18.672;2024-01-16T08:34:45;-2.50;35.10
19106;DHT22;9685;54.338;18.672;2024-01-16T08:37:11;-1.80;35.50
19106;DHT22;9685;54.338;18.672;2024-01-16T08:39:38;-2.50;34.30
19106;DHT22;9685;54.338;18.672;2024-01-16T08:42:08;-2.50;34.10
19106;DHT22;9685;54.338;18.672;2024-01-16T08:44:37;-2.30;35.60
19106;DHT22;9685;54.338;18.672;2024-01-16T08:47:04;-2.20;35.30
19106;DHT22;9685;54.338;18.672;2024-01-16T08:49:31;-2.10;33.90
19106;DHT22;9685;54.338;18.672;2024-01-16T08:51:58;-2.20;33.80
19106;DHT22;9685;54.338;18.672;2024-01-16T08:54:25;-1.40;34.50
19106;DHT22;9685;54.338;18.672;2024-01-16T08:56:52;-2.10;34.60
19106;DHT22;9685;54.338;18.672;2024-01-16T08:59:21;-2.00;33.80
19106;DHT22;9685;54.338;18.672;2024-01-16T09:01:48;-2.10;35.50
19106;DHT22;9685;54.338;18.672;2024-01-16T09:04:15;-1.40;35.10
19106;DHT22;9685;54.338;18.672;2024-01-16T09:06:41;-1.90;33.70
19106;DHT22;9685;54.338;18.672;2024-01-16T09:09:08;-1.90;33.70
19106;DHT22;9685;54.338;18.672;2024-01-16T09:11:35;-1.80;34.00
19106;DHT22;9685;54.338;18.672;2024-01-16T09:14:02;-1.60;34.60
19106;DHT22;9685;54.338;18.672;2024-01-16T09:16:30;-1.40;34.90
19106;DHT22;9685;54.338;18.672;2024-01-16T09:18:57;-1.00;34.10
19106;DHT22;9685;54.338;18.672;2024-01-16T09:21:24;-1.10;34.70
19106;DHT22;9685;54.338;18.672;2024-01-16T09:23:51;-1.00;34.50
19106;DHT22;9685;54.338;18.672;2024-01-16T09:26:18;-1.10;34.50
19106;DHT22;9685;54.338;18.672;2024-01-16T09:28:46;-0.30;28.50
19106;DHT22;9685;54.338;18.672;2024-01-16T09:31:15;-0.80;34.50
19106;DHT22;9685;54.338;18.672;2024-01-16T09:33:43;-0.70;34.40
19106;DHT22;9685;54.338;18.672;2024-01-16T09:36:10;-0.40;34.60
19106;DHT22;9685;54.338;18.672;2024-01-16T09:38:37;0.00;35.60
19106;DHT22;9685;54.338;18.672;2024-01-16T09:41:04;0.00;34.80
19106;DHT22;9685;54.338;18.672;2024-01-16T09:43:31;0.20;35.40
19106;DHT22;9685;54.338;18.672;2024-01-16T09:46:01;0.60;36.50
19106;DHT22;9685;54.338;18.672;2024-01-16T09:48:28;0.80;37.30
19106;DHT22;9685;54.338;18.672;2024-01-16T09:50:57;0.90;36.20
19106;DHT22;9685;54.338;18.672;2024-01-16T09:53:25;1.20;35.60
19106;DHT22;9685;54.338;18.672;2024-01-16T09:55:54;1.40;34.40
19106;DHT22;9685;54.338;18.672;2024-01-16T09:58:21;0.90;35.20
19106;DHT22;9685;54.338;18.672;2024-01-16T10:00:49;0.90;29.60
19106;DHT22;9685;54.338;18.672;2024-01-16T10:03:17;0.50;34.10
19106;DHT22;9685;54.338;18.672;2024-01-16T10:05:47;0.50;33.60
19106;DHT22;9685;54.338;18.672;2024-01-16T10:08:16;0.60;34.60
19106;DHT22;9685;54.338;18.672;2024-01-16T10:10:47;0.80;33.20
19106;DHT22;9685;54.338;18.672;2024-01-16T10:13:15;0.70;31.90
19106;DHT22;9685;54.338;18.672;2024-01-16T10:15:42;0.60;31.90
19106;DHT22;9685;54.338;18.672;2024-01-16T10:18:21;0.40;31.00
19106;DHT22;9685;54.338;18.672;2024-01-16T10:20:49;-0.10;30.10
19106;DHT22;9685;54.338;18.672;2024-01-16T10:23:23;-0.30;28.80
19106;DHT22;9685;54.338;18.672;2024-01-16T10:26:05;-0.40;25.90
19106;DHT22;9685;54.338;18.672;2024-01-16T10:28:32;-0.20;30.50
19106;DHT22;9685;54.338;18.672;2024-01-16T10:31:03;-0.50;30.00
19106;DHT22;9685;54.338;18.672;2024-01-16T10:33:30;-0.70;28.90
19106;DHT22;9685;54.338;18.672;2024-01-16T10:36:13;-0.80;28.20
19106;DHT22;9685;54.338;18.672;2024-01-16T10:38:44;-0.70;29.20
19106;DHT22;9685;54.338;18.672;2024-01-16T10:41:12;-0.50;30.70
19106;DHT22;9685;54.338;18.672;2024-01-16T10:43:40;-0.20;30.00
19106;DHT22;9685;54.338;18.672;2024-01-16T10:46:11;-0.80;29.60
19106;DHT22;9685;54.338;18.672;2024-01-16T10:48:40;-0.90;29.90
19106;DHT22;9685;54.338;18.672;2024-01-16T10:51:11;-0.90;29.20
19106;DHT22;9685;54.338;18.672;2024-01-16T10:53:44;-0.90;29.80
19106;DHT22;9685;54.338;18.672;2024-01-16T10:56:12;-0.80;29.50
19106;DHT22;9685;54.338;18.672;2024-01-16T10:58:42;-0.10;30.00
19106;DHT22;9685;54.338;18.672;2024-01-16T11:01:11;-0.50;30.30
19106;DHT22;9685;54.338;18.672;2024-01-16T11:03:46;-0.10;30.40
19106;DHT22;9685;54.338;18.672;2024-01-16T11:06:15;-0.70;29.50
19106;DHT22;9685;54.338;18.672;2024-01-16T11:08:44;-0.50;29.90
19106;DHT22;9685;54.338;18.672;2024-01-16T11:11:13;-0.70;30.40
19106;DHT22;9685;54.338;18.672;2024-01-16T11:13:41;-0.60;29.30
19106;DHT22;9685;54.338;18.672;2024-01-16T11:16:10;0.10;31.90
19106;DHT22;9685;54.338;18.672;2024-01-16T11:18:37;0.20;31.70
19106;DHT22;9685;54.338;18.672;2024-01-16T11:21:07;0.50;32.50
19106;DHT22;9685;54.338;18.672;2024-01-16T11:23:34;1.00;35.20
19106;DHT22;9685;54.338;18.672;2024-01-16T11:26:25;1.40;35.00
19106;DHT22;9685;54.338;18.672;2024-01-16T11:28:52;1.80;36.30
19106;DHT22;9685;54.338;18.672;2024-01-16T11:31:28;2.10;34.60
19106;DHT22;9685;54.338;18.672;2024-01-16T11:33:56;1.80;54.70
19106;DHT22;9685;54.338;18.672;2024-01-16T11:36:47;1.70;32.60
19106;DHT22;9685;54.338;18.672;2024-01-16T11:39:19;2.10;36.80
19106;DHT22;9685;54.338;18.672;2024-01-16T11:41:52;2.50;35.60
19106;DHT22;9685;54.338;18.672;2024-01-16T11:44:42;2.90;36.60
19106;DHT22;9685;54.338;18.672;2024-01-16T11:47:16;3.40;37.60
19106;DHT22;9685;54.338;18.672;2024-01-16T11:49:43;3.70;38.70
19106;DHT22;9685;54.338;18.672;2024-01-16T11:52:11;4.30;37.40
19106;DHT22;9685;54.338;18.672;2024-01-16T11:54:38;4.20;36.60
19106;DHT22;9685;54.338;18.672;2024-01-16T12:00:02;4.70;40.00
19106;DHT22;9685;54.338;18.672;2024-01-16T12:02:51;4.70;39.20
19106;DHT22;9685;54.338;18.672;2024-01-16T12:05:18;5.00;39.50
19106;DHT22;9685;54.338;18.672;2024-01-16T12:07:46;5.60;39.00
19106;DHT22;9685;54.338;18.672;2024-01-16T12:10:15;5.40;39.10
19106;DHT22;9685;54.338;18.672;2024-01-16T12:12:44;4.70;36.80
19106;DHT22;9685;54.338;18.672;2024-01-16T12:15:15;4.30;36.20
19106;DHT22;9685;54.338;18.672;2024-01-16T12:18:00;4.20;36.60
19106;DHT22;9685;54.338;18.672;2024-01-16T12:20:30;3.60;33.60
19106;DHT22;9685;54.338;18.672;2024-01-16T12:22:59;3.30;32.10
19106;DHT22;9685;54.338;18.672;2024-01-16T12:25:26;2.90;32.20
19106;DHT22;9685;54.338;18.672;2024-01-16T12:27:59;2.70;32.00
19106;DHT22;9685;54.338;18.672;2024-01-16T12:30:27;2.80;32.30
19106;DHT22;9685;54.338;18.672;2024-01-16T12:33:07;3.10;33.00
19106;DHT22;9685;54.338;18.672;2024-01-16T12:35:35;3.20;33.10
19106;DHT22;9685;54.338;18.672;2024-01-16T12:38:03;2.90;32.30
19106;DHT22;9685;54.338;18.672;2024-01-16T12:40:32;2.90;31.90
19106;DHT22;9685;54.338;18.672;2024-01-16T12:43:01;2.60;32.10
19106;DHT22;9685;54.338;18.672;2024-01-16T12:45:28;2.30;29.30
19106;DHT22;9685;54.338;18.672;2024-01-16T12:47:55;2.50;30.60
19106;DHT22;9685;54.338;18.672;2024-01-16T12:50:26;2.60;30.90
19106;DHT22;9685;54.338;18.672;2024-01-16T12:53:03;2.80;31.10
19106;DHT22;9685;54.338;18.672;2024-01-16T12:55:32;2.50;31.20
19106;DHT22;9685;54.338;18.672;2024-01-16T12:58:17;2.70;31.60
19106;DHT22;9685;54.338;18.672;2024-01-16T13:00:44;2.80;31.40
19106;DHT22;9685;54.338;18.672;2024-01-16T13:03:17;2.70;29.70
19106;DHT22;9685;54.338;18.672;2024-01-16T13:05:45;2.60;29.50
19106;DHT22;9685;54.338;18.672;2024-01-16T13:08:19;2.00;27.60
19106;DHT22;9685;54.338;18.672;2024-01-16T13:10:47;1.80;27.20
19106;DHT22;9685;54.338;18.672;2024-01-16T13:13:29;1.70;27.30
19106;DHT22;9685;54.338;18.672;2024-01-16T13:15:56;1.50;25.50
19106;DHT22;9685;54.338;18.672;2024-01-16T13:18:24;1.20;25.60
19106;DHT22;9685;54.338;18.672;2024-01-16T13:20:52;0.80;25.50
19106;DHT22;9685;54.338;18.672;2024-01-16T13:23:20;0.60;24.70
19106;DHT22;9685;54.338;18.672;2024-01-16T13:25:49;0.50;24.30
19106;DHT22;9685;54.338;18.672;2024-01-16T13:28:17;0.40;24.00
19106;DHT22;9685;54.338;18.672;2024-01-16T13:30:46;0.30;23.60
19106;DHT22;9685;54.338;18.672;2024-01-16T13:33:14;0.20;23.80
19106;DHT22;9685;54.338;18.672;2024-01-16T13:35:42;0.30;24.90
19106;DHT22;9685;54.338;18.672;2024-01-16T13:38:11;0.40;23.00
19106;DHT22;9685;54.338;18.672;2024-01-16T13:40:38;0.30;24.10
19106;DHT22;9685;54.338;18.672;2024-01-16T13:43:05;0.20;22.80
19106;DHT22;9685;54.338;18.672;2024-01-16T13:45:33;0.10;22.90
19106;DHT22;9685;54.338;18.672;2024-01-16T13:48:02;0.20;28.20
19106;DHT22;9685;54.338;18.672;2024-01-16T13:50:30;0.20;24.80
19106;DHT22;9685;54.338;18.672;2024-01-16T13:52:57;0.20;24.20
19106;DHT22;9685;54.338;18.672;2024-01-16T13:55:24;0.20;23.40
19106;DHT22;9685;54.338;18.672;2024-01-16T13:57:51;0.30;22.90
19106;DHT22;9685;54.338;18.672;2024-01-16T14:00:18;0.30;23.60
19106;DHT22;9685;54.338;18.672;2024-01-16T14:02:46;0.30;24.30
19106;DHT22;9685;54.338;18.672;2024-01-16T14:05:16;0.60;24.60
19106;DHT22;9685;54.338;18.672;2024-01-16T14:07:43;0.70;25.20
19106;DHT22;9685;54.338;18.672;2024-01-16T14:10:12;0.90;24.30
19106;DHT22;9685;54.338;18.672;2024-01-16T14:12:39;1.10;25.90
19106;DHT22;9685;54.338;18.672;2024-01-16T14:15:09;1.20;25.30
19106;DHT22;9685;54.338;18.672;2024-01-16T14:17:41;1.10;25.30
19106;DHT22;9685;54.338;18.672;2024-01-16T14:20:10;1.10;24.60
19106;DHT22;9685;54.338;18.672;2024-01-16T14:22:39;1.00;25.10
19106;DHT22;9685;54.338;18.672;2024-01-16T14:25:07;0.80;23.30
19106;DHT22;9685;54.338;18.672;2024-01-16T14:27:37;0.40;23.30
19106;DHT22;9685;54.338;18.672;2024-01-16T14:30:06;0.10;22.80
19106;DHT22;9685;54.338;18.672;2024-01-16T14:32:34;-0.10;22.40
19106;DHT22;9685;54.338;18.672;2024-01-16T14:35:00;-0.20;21.20
19106;DHT22;9685;54.338;18.672;2024-01-16T14:37:29;-0.60;20.10
19106;DHT22;9685;54.338;18.672;2024-01-16T14:39:59;-0.70;19.90
19106;DHT22;9685;54.338;18.672;2024-01-16T14:42:27;-0.20;20.90
19106;DHT22;9685;54.338;18.672;2024-01-16T14:44:54;-1.10;18.90
19106;DHT22;9685;54.338;18.672;2024-01-16T14:47:21;-1.20;19.40
19106;DHT22;9685;54.338;18.672;2024-01-16T14:49:49;-1.30;19.40
19106;DHT22;9685;54.338;18.672;2024-01-16T14:52:16;-1.30;18.70
19106;DHT22;9685;54.338;18.672;2024-01-16T14:54:43;-1.30;19.20
19106;DHT22;9685;54.338;18.672;2024-01-16T14:57:12;-1.20;18.30
19106;DHT22;9685;54.338;18.672;2024-01-16T14:59:39;-0.80;19.20
19106;DHT22;9685;54.338;18.672;2024-01-16T15:02:07;-1.50;18.60
19106;DHT22;9685;54.338;18.672;2024-01-16T15:04:39;-1.50;19.60
19106;DHT22;9685;54.338;18.672;2024-01-16T15:07:06;-1.60;17.50
19106;DHT22;9685;54.338;18.672;2024-01-16T15:09:33;-1.50;18.60
19106;DHT22;9685;54.338;18.672;2024-01-16T15:12:04;-1.40;18.90
19106;DHT22;9685;54.338;18.672;2024-01-16T15:14:32;-1.50;19.20
19106;DHT22;9685;54.338;18.672;2024-01-16T15:17:00;-1.10;19.10
19106;DHT22;9685;54.338;18.672;2024-01-16T15:19:27;-0.90;18.10
19106;DHT22;9685;54.338;18.672;2024-01-16T15:21:54;-1.60;19.20
19106;DHT22;9685;54.338;18.672;2024-01-16T15:24:21;-1.70;18.30
19106;DHT22;9685;54.338;18.672;2024-01-16T15:26:52;-1.90;18.10
19106;DHT22;9685;54.338;18.672;2024-01-16T15:29:19;-2.00;17.20
19106;DHT22;9685;54.338;18.672;2024-01-16T15:31:47;-2.10;17.50
19106;DHT22;9685;54.338;18.672;2024-01-16T15:34:14;-2.30;17.50
19106;DHT22;9685;54.338;18.672;2024-01-16T15:36:41;-2.40;17.50
19106;DHT22;9685;54.338;18.672;2024-01-16T15:39:08;-2.40;17.10
19106;DHT22;9685;54.338;18.672;2024-01-16T15:41:36;-2.50;17.60
19106;DHT22;9685;54.338;18.672;2024-01-16T15:44:03;-2.30;17.40